Time;durP1;ratioP1;P1;durP2;ratioP2;P2;SDS_P1;SDS_P2;PMS_P1;PMS_P2;Temp;Humidity;BMP_temperature;BMP_pressure;BME280_temperature;BME280_humidity;BME280_pressure;Samples;Min_cycle;Max_cycle;Signal;HPM_P1;HPM_P2
2022/01/15 00:00:24;;;;;;;2.65;1.27;;;;;;;4.40;56.58;101650.38;5966022;24;20056;-76
2022/01/15 00:02:55;;;;;;;1.40;1.30;;;;;;;4.44;56.74;101652.47;6078727;23;20028;-76
2022/01/15 00:05:30;;;;;;;1.35;1.25;;;;;;;4.39;56.61;101648.69;6139127;23;20427;-77
2022/01/15 00:07:58;;;;;;;1.17;1.17;;;;;;;4.41;56.78;101665.56;6165692;23;20000;-75
2022/01/15 00:10:28;;;;;;;1.92;1.83;;;;;;;4.31;56.26;101658.59;6190461;23;20009;-74
2022/01/15 00:12:58;;;;;;;1.75;1.02;;;;;;;4.40;56.08;101663.91;6191836;23;20023;-76
2022/01/15 00:15:49;;;;;;;1.48;1.40;;;;;;;4.32;56.91;101660.28;6217744;23;20000;-76
2022/01/15 00:18:39;;;;;;;1.83;1.50;;;;;;;4.21;56.70;101644.56;6218919;23;20024;-76
2022/01/15 00:21:07;;;;;;;1.77;1.67;;;;;;;4.16;56.79;101645.16;6170832;23;20012;-76
2022/01/15 00:23:34;;;;;;;1.10;1.02;;;;;;;4.11;56.76;101638.63;6165817;23;20058;-74
2022/01/15 00:26:00;;;;;;;1.02;1.02;;;;;;;4.12;56.93;101653.84;6168709;23;20091;-76
2022/01/15 00:28:25;;;;;;;1.38;1.27;;;;;;;4.04;56.83;101640.44;6168051;23;20013;-76
2022/01/15 00:30:58;;;;;;;1.75;1.65;;;;;;;4.14;56.90;101668.03;6190970;23;20004;-75
2022/01/15 00:33:31;;;;;;;2.17;2.08;;;;;;;4.08;57.07;101663.38;6217217;23;20009;-75
2022/01/15 00:36:00;;;;;;;3.75;3.45;;;;;;;4.02;57.82;101673.09;6218226;23;20015;-75
2022/01/15 00:38:47;;;;;;;3.25;3.05;;;;;;;3.87;57.36;101646.09;6190960;23;20060;-75
2022/01/15 00:41:16;;;;;;;;;;;;;;;3.91;57.64;101650.06;6215826;23;20046;-75
2022/01/15 00:43:41;;;;;;;2.88;2.67;;;;;;;3.74;57.41;101618.88;6190610;23;19914;-75
2022/01/15 00:46:07;;;;;;;2.10;2.00;;;;;;;3.79;57.58;101632.69;6216320;23;20009;-74
2022/01/15 00:48:33;;;;;;;2.08;1.98;;;;;;;3.76;57.72;101631.19;6189519;23;20043;-75
2022/01/15 00:50:58;;;;;;;3.15;1.77;;;;;;;3.75;57.54;101636.78;6193093;23;20076;-75
2022/01/15 00:53:26;;;;;;;2.10;2.00;;;;;;;3.80;57.15;101643.31;6166507;23;20481;-76
2022/01/15 00:55:54;;;;;;;3.22;1.55;;;;;;;3.80;57.81;101642.47;6193512;23;20082;-77
2022/01/15 00:58:21;;;;;;;1.45;1.35;;;;;;;3.73;57.83;101639.69;6192002;23;20054;-75
2022/01/15 01:00:47;;;;;;;1.67;1.58;;;;;;;3.64;58.06;101628.16;6141036;23;20331;-76
2022/01/15 01:03:15;;;;;;;3.38;1.27;;;;;;;3.62;57.24;101632.06;6216846;23;20069;-76
2022/01/15 01:05:40;;;;;;;1.02;0.93;;;;;;;3.70;57.76;101645.47;6164988;23;20088;-75
2022/01/15 01:08:17;;;;;;;1.98;1.17;;;;;;;3.62;57.64;101635.63;6215156;23;20419;-77
2022/01/15 01:10:59;;;;;;;1.13;1.13;;;;;;;3.54;57.89;101619.50;6169192;23;20001;-76
2022/01/15 01:24:56;;;;;;;0.90;0.90;;;;;;;3.55;57.94;101610.34;6152989;23;20008;-76
2022/01/15 01:27:41;;;;;;;0.85;0.85;;;;;;;3.62;58.08;101611.28;6223675;23;20360;-77
2022/01/15 01:30:13;;;;;;;1.08;1.00;;;;;;;3.79;58.67;101605.63;6152584;23;20015;-78
2022/01/15 01:32:56;;;;;;;1.58;1.48;;;;;;;3.84;58.63;101595.03;6193094;23;20015;-78
2022/01/15 01:35:41;;;;;;;1.80;1.70;;;;;;;3.83;58.32;101579.84;6173371;23;20005;-77
2022/01/15 01:38:13;;;;;;;2.45;2.35;;;;;;;3.88;58.87;101576.56;6220369;23;20028;-76
2022/01/15 01:40:43;;;;;;;4.35;4.03;;;;;;;3.95;58.70;101572.88;6193122;23;20087;-76
2022/01/15 01:45:53;;;;;;;3.95;2.90;;;;;;;4.03;58.50;101561.09;6228067;23;20013;-77
2022/01/15 01:48:21;;;;;;;3.80;2.28;;;;;;;4.15;58.67;101553.28;6193028;23;20379;-77
2022/01/15 01:50:51;;;;;;;3.28;2.55;;;;;;;4.18;58.77;101542.06;6144834;23;20016;-77
2022/01/15 02:40:43;;;;;;;2.92;2.72;;;;;;;6.02;57.65;101518.84;6199005;22;20199;-75
2022/01/15 03:02:46;;;;;;;1.83;1.33;;;;;;;6.40;57.74;101491.00;6209185;22;20028;-78
2022/01/15 03:05:21;;;;;;;1.27;1.17;;;;;;;6.52;58.15;101501.22;6169019;23;20004;-76
2022/01/15 03:08:00;;;;;;;;;;;;;;;;;;;;;
2022/01/15 03:10:26;;;;;;;1.10;1.05;;;;;;;6.64;57.68;101499.50;6217210;23;20387;-74
2022/01/15 03:12:58;;;;;;;1.60;0.80;;;;;;;6.64;57.63;101499.50;6192994;23;20015;-76
2022/01/15 03:15:27;;;;;;;2.17;0.77;;;;;;;6.60;57.63;101476.53;6218185;23;20326;-75
2022/01/15 03:17:53;;;;;;;1.67;1.00;;;;;;;6.63;56.72;101487.00;6167183;23;20009;-74
2022/01/15 03:20:26;;;;;;;1.10;0.68;;;;;;;6.68;57.09;101481.72;6189692;23;20011;-74
2022/01/15 03:23:15;;;;;;;0.95;0.68;;;;;;;6.77;56.97;101485.88;6168581;23;20016;-74
2022/01/15 03:25:41;;;;;;;0.80;0.80;;;;;;;6.78;56.41;101489.44;6192991;23;20023;-72
2022/01/15 03:28:06;;;;;;;1.77;0.77;;;;;;;6.69;56.48;101475.25;6191312;23;20439;-75
2022/01/15 03:30:35;;;;;;;0.77;0.77;;;;;;;6.71;56.81;101472.31;6217292;23;20423;-75
2022/01/15 03:33:03;;;;;;;0.80;0.80;;;;;;;6.73;56.75;101481.94;6193664;23;20032;-75
2022/01/15 03:35:37;;;;;;;1.00;0.90;;;;;;;6.58;56.86;101452.28;6214381;23;20036;-75
2022/01/15 03:38:09;;;;;;;1.00;1.00;;;;;;;6.56;57.02;101459.00;6216962;23;20001;-74
2022/01/15 03:40:43;;;;;;;1.30;1.20;;;;;;;6.58;56.62;101478.63;6189994;23;20107;-75
2022/01/15 03:43:10;;;;;;;1.75;1.65;;;;;;;6.35;57.40;101447.34;6217336;23;20008;-73
2022/01/15 03:45:36;;;;;;;1.70;1.60;;;;;;;6.41;57.25;101461.94;6190710;23;20062;-75
2022/01/15 03:48:13;;;;;;;1.90;1.70;;;;;;;6.43;57.50;101460.69;6188643;23;20016;-76
2022/01/15 03:50:50;;;;;;;4.20;1.48;;;;;;;6.43;56.58;101460.69;6167031;23;20016;-76
2022/01/15 03:53:23;;;;;;;1.08;0.98;;;;;;;6.38;57.25;101446.06;6193448;23;20055;-74
2022/01/15 03:56:02;;;;;;;;;;;;;;;;;;;;;
2022/01/15 03:58:28;;;;;;;1.38;1.25;;;;;;;6.39;56.47;101445.84;6193334;23;20039;-75
2022/01/15 04:01:00;;;;;;;1.40;1.30;;;;;;;6.45;57.50;101455.03;6167720;23;20431;-77
2022/01/15 04:03:25;;;;;;;1.83;1.70;;;;;;;6.37;56.75;101445.25;6168222;23;20028;-75
2022/01/15 04:05:51;;;;;;;1.48;1.38;;;;;;;6.29;56.61;101429.16;6191228;23;20447;-73
2022/01/15 04:08:17;;;;;;;1.48;1.38;;;;;;;6.29;57.37;101431.88;6192925;23;20004;-74
2022/01/15 04:10:45;;;;;;;1.27;1.02;;;;;;;6.17;56.67;101428.16;6197446;23;20031;-76
2022/01/15 04:13:15;;;;;;;1.35;1.25;;;;;;;6.14;57.45;101439.44;6196011;23;20150;-75
2022/01/15 04:15:52;;;;;;;4.20;2.00;;;;;;;6.10;57.62;101439.88;6196680;23;20068;-76
2022/01/15 04:18:21;;;;;;;1.45;1.35;;;;;;;5.93;57.77;101414.19;6195822;23;20015;-76
2022/01/15 04:20:51;;;;;;;1.63;1.52;;;;;;;5.85;57.11;101398.09;6194810;23;20009;-76
2022/01/15 04:23:19;;;;;;;1.00;0.90;;;;;;;5.87;57.07;101413.13;6221021;23;20001;-75
2022/01/15 04:25:45;;;;;;;1.55;1.45;;;;;;;5.87;57.94;101412.28;6219658;23;20004;-75
2022/01/15 04:28:12;;;;;;;1.50;1.40;;;;;;;5.62;57.37;101383.06;6219083;23;20004;-76
2022/01/15 04:30:41;;;;;;;1.30;1.30;;;;;;;5.62;57.70;101399.34;6167742;23;20012;-74
2022/01/15 04:33:24;;;;;;;1.15;1.13;;;;;;;5.42;57.43;101389.34;6193204;23;20308;-73
2022/01/15 04:35:49;;;;;;;1.55;1.45;;;;;;;5.39;57.72;101397.91;6190493;23;20075;-75
2022/01/15 04:38:15;;;;;;;1.83;1.73;;;;;;;5.15;57.74;101383.06;6167226;23;20009;-76
2022/01/15 04:40:45;;;;;;;2.25;2.05;;;;;;;4.99;58.09;101389.69;6192839;23;20016;-75
2022/01/15 04:43:14;;;;;;;1.95;1.85;;;;;;;4.92;58.39;101383.47;6193108;23;20079;-75
2022/01/15 04:45:39;;;;;;;2.13;1.90;;;;;;;4.84;58.64;101370.91;6190873;23;20387;-76
2022/01/15 04:48:05;;;;;;;2.03;1.70;;;;;;;4.88;58.32;101383.00;6142157;23;20103;-76
2022/01/15 04:50:39;;;;;;;2.08;1.77;;;;;;;4.75;59.04;101371.31;6191612;23;20071;-75
2022/01/15 04:53:13;;;;;;;1.55;1.45;;;;;;;4.56;58.84;101360.19;6167475;23;20001;-76
2022/01/15 04:55:39;;;;;;;1.30;1.23;;;;;;;4.50;58.70;101364.56;6192376;23;20019;-76
2022/01/15 04:58:27;;;;;;;1.33;1.23;;;;;;;4.52;59.03;101369.78;6189497;23;20007;-75
2022/01/15 05:00:53;;;;;;;1.83;1.73;;;;;;;4.24;59.44;101343.63;6222627;23;20161;-75
2022/01/15 05:03:39;;;;;;;1.85;1.75;;;;;;;4.15;59.30;101345.66;6194748;23;20051;-76
2022/01/15 05:06:13;;;;;;;;;;;;;;;4.18;59.48;101366.09;6198312;23;20020;-76
2022/01/15 05:08:56;;;;;;;;;;;;;;;;;;;;;
2022/01/15 05:11:31;;;;;;;4.65;2.50;;;;;;;3.96;59.57;101366.16;6222238;23;20043;-77
2022/01/15 05:14:08;;;;;;;4.00;2.10;;;;;;;3.89;60.00;101378.81;6193141;23;20005;-75
2022/01/15 05:17:02;;;;;;;3.03;2.83;;;;;;;3.77;60.09;101369.59;6196257;23;20008;-74
2022/01/15 05:19:28;;;;;;;4.03;2.83;;;;;;;3.57;60.16;101348.63;6221786;23;19997;-74
2022/01/15 05:21:57;;;;;;;1.80;1.70;;;;;;;3.59;60.08;101360.09;6195029;23;20346;-74
2022/01/15 05:24:30;;;;;;;1.83;1.73;;;;;;;3.41;60.41;101344.34;6193575;23;20017;-73
2022/01/15 05:26:56;;;;;;;1.52;1.42;;;;;;;3.32;60.35;101335.53;6169848;23;20039;-73
2022/01/15 05:29:24;;;;;;;1.20;1.20;;;;;;;3.40;60.87;101358.06;6193857;23;20004;-73
2022/01/15 05:31:49;;;;;;;1.50;1.10;;;;;;;3.31;60.83;101349.25;6194986;23;20008;-74
2022/01/15 05:34:18;;;;;;;5.20;1.67;;;;;;;3.25;60.72;101350.88;6170375;23;20005;-75
2022/01/15 05:36:44;;;;;;;6.05;3.67;;;;;;;3.20;61.12;101342.53;6193532;23;20004;-74
2022/01/15 05:39:09;;;;;;;5.25;3.22;;;;;;;3.14;61.36;101340.59;6146444;23;20485;-73
2022/01/15 05:41:38;;;;;;;3.03;2.78;;;;;;;3.20;60.98;101353.34;6195226;23;20004;-74
2022/01/15 05:44:11;;;;;;;3.33;2.95;;;;;;;3.17;61.56;101358.28;6194026;23;20008;-74
2022/01/15 05:46:45;;;;;;;4.43;4.13;;;;;;;3.15;61.52;101350.38;6194621;23;21955;-76
2022/01/15 05:49:10;;;;;;;3.65;3.35;;;;;;;3.24;61.17;101368.16;6194212;23;20079;-75
2022/01/15 05:51:39;;;;;;;5.97;3.30;;;;;;;3.16;61.63;101343.94;6193320;23;20403;-75
2022/01/15 05:54:14;;;;;;;2.10;2.00;;;;;;;3.23;61.74;101342.13;6169697;23;20013;-75
2022/01/15 05:56:40;;;;;;;1.97;1.87;;;;;;;3.23;61.69;101339.44;6222196;23;20007;-74
2022/01/15 05:59:07;;;;;;;3.88;2.40;;;;;;;3.29;61.53;101332.41;6195476;23;20023;-74
2022/01/15 06:01:42;;;;;;;1.50;1.40;;;;;;;3.47;62.22;101353.53;6220750;23;20054;-75
2022/01/15 06:04:08;;;;;;;1.73;1.63;;;;;;;3.41;61.54;101338.13;6201788;23;20021;-75
2022/01/15 06:06:33;;;;;;;1.67;1.58;;;;;;;3.50;61.32;101347.75;6178542;23;20008;-74
2022/01/15 06:09:05;;;;;;;1.63;1.50;;;;;;;3.49;61.70;101336.09;6178700;23;20015;-75
2022/01/15 06:11:39;;;;;;;0.98;0.90;;;;;;;3.51;61.66;101333.19;6192220;23;20066;-75
2022/01/15 06:14:04;;;;;;;1.38;1.27;;;;;;;3.54;61.33;101337.38;6219448;23;20075;-74
2022/01/15 06:16:30;;;;;;;3.78;3.47;;;;;;;3.66;62.00;101347.47;6192836;23;20416;-75
2022/01/15 06:18:56;;;;;;;5.07;4.68;;;;;;;3.61;61.96;101341.78;6193957;23;20031;-75
2022/01/15 06:21:21;;;;;;;8.02;4.38;;;;;;;3.61;62.56;101322.88;6191744;23;20066;-75
2022/01/15 06:23:51;;;;;;;3.17;2.88;;;;;;;3.81;62.07;101349.19;6192283;23;20008;-75
2022/01/15 06:26:17;;;;;;;3.70;3.47;;;;;;;3.74;62.19;101326.69;6191351;23;20008;-74
2022/01/15 06:28:45;;;;;;;4.55;4.25;;;;;;;3.91;62.49;101355.09;6194167;23;20441;-76
2022/01/15 06:31:12;;;;;;;9.93;5.57;;;;;;;3.93;62.59;101369.28;6167658;23;20347;-77
2022/01/15 06:33:37;;;;;;;5.60;5.10;;;;;;;3.93;62.60;101358.44;6221346;23;20080;-76
2022/01/15 06:36:11;;;;;;;4.97;4.47;;;;;;;3.90;62.72;101348.03;6219054;23;20012;-75
2022/01/15 06:38:47;;;;;;;4.45;4.05;;;;;;;3.96;62.45;101352.63;6169952;23;20004;-75
2022/01/15 06:41:13;;;;;;;3.40;2.90;;;;;;;4.06;62.51;101352.28;6219601;23;20209;-75
2022/01/15 06:43:39;;;;;;;3.45;3.25;;;;;;;4.05;62.61;101344.38;6165767;23;20081;-74
2022/01/15 06:46:07;;;;;;;2.50;2.30;;;;;;;4.12;62.31;101350.66;6193035;23;20062;-76
2022/01/15 06:48:34;;;;;;;3.10;2.53;;;;;;;4.19;62.54;101359.63;6192772;23;20484;-74
2022/01/15 06:51:00;;;;;;;2.80;2.60;;;;;;;4.30;62.36;101359.06;6194153;23;20020;-76
2022/01/15 06:53:26;;;;;;;2.60;2.40;;;;;;;4.25;62.22;101349.84;6165998;23;20005;-74
2022/01/15 06:56:14;;;;;;;;;;;;;;;;;;;;;
2022/01/15 06:58:59;;;;;;;;;;;;;;;;;;;;;
2022/01/15 07:01:35;;;;;;;;;;;;;;;;;;;;;
2022/01/15 07:04:24;;;;;;;2.42;2.33;;;;;;;4.49;62.62;101353.94;6219351;23;20040;-74
2022/01/15 07:07:17;;;;;;;;;;;;;;;;;;;;;
2022/01/15 07:13:48;;;;;;;1.88;1.77;;;;;;;4.76;62.45;101372.97;6070259;23;20006;-72
2022/01/15 07:24:06;;;;;;;;;;;;;;;;;;;;;
2022/01/15 07:26:54;;;;;;;1.10;1.10;;;;;;;4.98;62.54;101362.78;6114303;23;20038;-71
2022/01/15 07:47:13;;;;;;;;;;;;;;;;;;;;;
2022/01/15 07:50:02;;;;;;;2.30;2.20;;;;;;;3.99;62.24;101352.22;6186886;23;20076;-73
2022/01/15 07:52:37;;;;;;;2.53;2.33;;;;;;;3.83;62.67;101342.56;6186847;23;20004;-74
2022/01/15 07:55:29;;;;;;;1.20;1.20;;;;;;;3.73;62.74;101333.13;6187390;23;19997;-70
2022/01/15 07:58:05;;;;;;;1.95;1.85;;;;;;;3.52;62.69;101329.47;6185119;23;20427;-72
2022/01/15 08:00:34;;;;;;;1.67;1.40;;;;;;;3.46;62.67;101336.50;6183759;23;20031;-72
2022/01/15 08:03:00;;;;;;;2.30;1.58;;;;;;;3.42;62.58;101339.78;6183403;23;20438;-73
2022/01/15 08:05:26;;;;;;;1.33;1.23;;;;;;;3.30;62.79;101336.75;6160158;23;20009;-74
2022/01/15 08:07:54;;;;;;;2.40;1.75;;;;;;;3.31;63.19;101336.59;6183021;23;20009;-74
2022/01/15 08:10:20;;;;;;;3.58;2.33;;;;;;;3.29;63.34;101341.34;6186099;23;20067;-73
2022/01/15 08:12:49;;;;;;;2.47;2.38;;;;;;;3.35;63.90;101333.50;6188685;23;20013;-74
2022/01/15 08:15:31;;;;;;;2.70;2.30;;;;;;;3.56;63.64;101346.13;6183510;23;20023;-73
2022/01/15 08:17:59;;;;;;;1.65;1.42;;;;;;;3.59;63.71;101334.91;6163867;23;20013;-73
2022/01/15 08:20:28;;;;;;;2.05;1.95;;;;;;;3.71;63.55;101341.47;6159506;23;20009;-73
2022/01/15 08:22:55;;;;;;;1.63;1.52;;;;;;;3.66;63.70;101331.22;6159084;23;20047;-74
2022/01/15 08:25:22;;;;;;;4.40;1.73;;;;;;;3.73;63.44;101342.09;6181500;23;20462;-74
2022/01/15 08:27:49;;;;;;;2.75;2.65;;;;;;;3.77;63.87;101347.94;6185273;23;20306;-74
2022/01/15 08:30:16;;;;;;;2.15;1.65;;;;;;;3.75;63.42;101326.50;6186001;23;20005;-76
2022/01/15 08:32:53;;;;;;;;;;;;;;;;;;;;;
2022/01/15 08:35:18;;;;;;;2.25;2.05;;;;;;;3.80;63.65;101325.91;6186647;23;20485;-73
2022/01/15 08:37:44;;;;;;;2.67;2.47;;;;;;;3.87;63.23;101337.59;6160536;23;20005;-76
2022/01/15 08:40:14;;;;;;;3.80;2.03;;;;;;;3.84;63.04;101330.72;6188780;23;20438;-76
2022/01/15 08:42:42;;;;;;;1.92;1.83;;;;;;;3.81;63.18;101317.59;6185563;23;20025;-76
2022/01/15 08:45:12;;;;;;;1.20;1.10;;;;;;;3.92;63.23;101340.53;6187504;23;20013;-75
2022/01/15 08:47:38;;;;;;;0.95;0.93;;;;;;;3.87;63.09;101329.47;6187934;23;20095;-75
2022/01/15 08:50:07;;;;;;;1.10;1.10;;;;;;;3.89;63.14;101324.69;6186399;23;20001;-76
2022/01/15 08:52:34;;;;;;;0.80;0.80;;;;;;;3.99;63.12;101341.41;6184349;23;20500;-77
2022/01/15 08:55:00;;;;;;;1.17;1.08;;;;;;;3.94;63.19;101327.66;6184530;23;20089;-76
2022/01/15 08:57:31;;;;;;;1.42;1.30;;;;;;;4.06;63.28;101346.00;6185335;23;20005;-75
2022/01/15 09:00:14;;;;;;;1.67;1.58;;;;;;;4.14;63.35;101343.97;6184092;23;20001;-75
2022/01/15 09:02:47;;;;;;;2.05;1.58;;;;;;;4.24;63.11;101357.16;6185851;23;20078;-76
2022/01/15 09:05:26;;;;;;;1.65;1.55;;;;;;;4.16;63.22;101330.22;6162109;23;20008;-76
2022/01/15 09:07:52;;;;;;;1.15;1.05;;;;;;;4.19;62.72;101319.00;6185996;23;20137;-75
2022/01/15 09:10:20;;;;;;;1.73;1.63;;;;;;;4.37;63.09;101332.84;6190936;23;20005;-77
2022/01/15 09:12:51;;;;;;;1.85;1.70;;;;;;;4.51;62.60;101339.16;6140023;23;20009;-74
2022/01/15 09:15:18;;;;;;;1.50;1.40;;;;;;;4.63;62.78;101341.25;6187258;23;20005;-77
2022/01/15 09:17:44;;;;;;;0.98;0.95;;;;;;;4.76;62.64;101351.28;6187842;23;20012;-75
2022/01/15 09:20:54;;;;;;;1.10;1.10;;;;;;;4.88;62.38;101360.50;6185985;23;20036;-76
2022/01/15 09:23:36;;;;;;;2.38;2.28;;;;;;;4.82;62.60;101328.78;6185828;23;20084;-77
2022/01/15 09:26:44;;;;;;;3.40;3.10;;;;;;;4.95;62.80;101334.25;6191361;23;20036;-77
2022/01/15 09:32:06;;;;;;;2.75;2.65;;;;;;;5.69;62.58;101358.66;6198405;23;20016;-76
2022/01/15 09:34:34;;;;;;;5.25;4.47;;;;;;;5.86;61.81;101345.47;6198705;23;19988;-78
2022/01/15 09:37:07;;;;;;;4.20;3.80;;;;;;;6.11;61.99;101353.81;6191723;23;20005;-76
2022/01/15 09:39:33;;;;;;;4.35;3.95;;;;;;;6.34;62.45;101350.59;6188114;23;20005;-78
2022/01/15 09:42:03;;;;;;;6.57;4.70;;;;;;;6.74;62.00;101360.44;6186337;23;20114;-77
2022/01/15 09:44:29;;;;;;;6.18;5.18;;;;;;;6.88;61.64;101362.03;6190597;23;20072;-77
2022/01/15 09:46:54;;;;;;;4.95;4.55;;;;;;;6.99;61.21;101364.06;6187946;23;20344;-77
2022/01/15 09:49:24;;;;;;;3.85;3.40;;;;;;;6.98;60.74;101350.69;6187244;23;20376;-78
2022/01/15 09:51:50;;;;;;;4.75;2.97;;;;;;;7.02;60.89;101343.72;6185946;23;20013;-77
2022/01/15 09:54:17;;;;;;;2.70;2.50;;;;;;;7.27;61.62;101370.13;6162604;23;20035;-77
2022/01/15 09:56:53;;;;;;;;;;;;;;;;;;;;;
2022/01/15 09:59:20;;;;;;;3.22;2.47;;;;;;;7.51;61.29;101363.03;6187487;23;20508;-77
2022/01/15 10:01:47;;;;;;;1.90;1.80;;;;;;;7.64;61.39;101356.66;6187217;23;20075;-77
2022/01/15 10:04:14;;;;;;;2.00;1.90;;;;;;;7.75;60.35;101347.72;6184917;23;20114;-76
2022/01/15 10:07:20;;;;;;;4.43;3.33;;;;;;;7.97;60.91;101355.47;6186205;23;20438;-76
2022/01/15 10:09:48;;;;;;;5.78;2.72;;;;;;;8.03;60.40;101344.50;6183678;23;20084;-78
2022/01/15 10:12:30;;;;;;;2.83;2.63;;;;;;;8.38;59.84;101362.97;6182270;23;20646;-79
2022/01/15 10:15:02;;;;;;;4.95;4.45;;;;;;;8.38;59.32;101356.66;6182160;23;20016;-77
2022/01/15 10:17:33;;;;;;;6.95;6.38;;;;;;;8.25;59.49;101345.94;6183252;23;20000;-77
2022/01/15 10:20:00;;;;;;;12.07;8.85;;;;;;;7.98;58.64;101340.78;6183074;23;20015;-75
2022/01/15 10:22:28;;;;;;;12.85;8.45;;;;;;;7.93;58.72;101354.25;6183427;23;20038;-76
2022/01/15 10:25:10;;;;;;;10.57;9.52;;;;;;;7.75;59.17;101353.16;6181785;23;20015;-72
2022/01/15 10:27:41;;;;;;;12.43;8.00;;;;;;;7.61;59.49;101359.81;6181675;23;20001;-75
2022/01/15 10:30:18;;;;;;;10.35;7.13;;;;;;;7.42;59.45;101342.59;6179440;23;20011;-77
2022/01/15 10:32:57;;;;;;;5.82;5.38;;;;;;;7.44;59.80;101352.19;6184535;23;20005;-77
2022/01/15 10:35:31;;;;;;;11.25;7.05;;;;;;;7.30;59.96;101335.16;6183061;23;20143;-77
2022/01/15 10:38:49;;;;;;;5.55;5.07;;;;;;;7.37;59.88;101345.97;6182918;23;19993;-78
2022/01/15 10:41:45;;;;;;;4.38;3.97;;;;;;;7.42;60.79;101342.59;6180849;23;20036;-78
2022/01/15 10:44:34;;;;;;;3.72;3.53;;;;;;;7.46;60.61;101344.66;6168699;23;20017;-77
2022/01/15 10:47:21;;;;;;;5.53;5.05;;;;;;;7.36;60.45;101321.69;6182085;23;20009;-78
2022/01/15 10:49:47;;;;;;;7.35;6.72;;;;;;;7.37;59.83;101328.81;6180581;23;20005;-78
2022/01/15 10:52:18;;;;;;;9.32;8.48;;;;;;;7.31;60.81;101322.38;6180171;23;20355;-77
2022/01/15 10:55:32;;;;;;;8.63;7.57;;;;;;;7.29;60.00;101316.34;6158539;23;20627;-77
2022/01/15 10:58:04;;;;;;;8.23;6.68;;;;;;;7.33;60.76;101312.13;6179621;23;20005;-77
2022/01/15 11:00:35;;;;;;;7.07;6.25;;;;;;;7.48;60.01;101331.66;6181167;23;20096;-78
2022/01/15 11:03:12;;;;;;;8.40;7.60;;;;;;;7.54;59.91;101326.38;6180805;23;20009;-80
2022/01/15 11:05:39;;;;;;;7.53;6.50;;;;;;;7.47;60.91;101316.38;6181427;23;20616;-78
2022/01/15 11:08:06;;;;;;;10.77;7.00;;;;;;;7.55;60.11;101330.75;6154535;23;20012;-78
2022/01/15 11:10:39;;;;;;;7.47;6.85;;;;;;;7.50;60.18;101323.25;6182546;23;20059;-77
2022/01/15 11:13:07;;;;;;;7.47;6.53;;;;;;;7.54;60.18;101329.09;6181410;23;20013;-78
2022/01/15 11:15:36;;;;;;;8.18;7.38;;;;;;;7.56;60.47;101321.53;6157610;23;20009;-77
2022/01/15 11:18:03;;;;;;;7.60;6.45;;;;;;;7.50;60.81;101313.22;6155907;23;20037;-78
2022/01/15 11:20:32;;;;;;;8.55;7.13;;;;;;;7.65;60.86;101325.63;6179015;23;20001;-77
2022/01/15 11:23:03;;;;;;;8.52;6.82;;;;;;;7.68;60.80;101322.44;6183674;23;20105;-77
2022/01/15 11:25:38;;;;;;;9.82;8.93;;;;;;;7.61;60.17;101313.53;6177467;23;20005;-77
2022/01/15 11:28:05;;;;;;;12.38;9.02;;;;;;;7.61;59.99;101322.53;6182180;23;20422;-77
2022/01/15 11:30:32;;;;;;;8.68;7.15;;;;;;;7.66;61.00;101319.13;6178938;23;20016;-77
2022/01/15 11:33:01;;;;;;;7.90;7.10;;;;;;;7.71;60.22;101302.97;6180665;23;20013;-77
2022/01/15 11:35:40;;;;;;;15.73;9.75;;;;;;;7.72;59.97;101309.22;6181011;23;20005;-78
2022/01/15 11:38:06;;;;;;;17.35;10.00;;;;;;;7.67;60.45;101307.19;6181322;23;20001;-76
2022/01/15 11:40:45;;;;;;;10.77;8.32;;;;;;;7.70;60.19;101306.72;6176439;23;20055;-79
2022/01/15 11:43:26;;;;;;;8.40;7.50;;;;;;;7.80;59.78;101317.13;6174326;23;20092;-77
2022/01/15 11:46:04;;;;;;;11.85;7.82;;;;;;;7.73;60.61;101295.38;6179978;23;20016;-77
2022/01/15 11:48:33;;;;;;;6.88;6.35;;;;;;;7.87;60.83;101307.00;6174546;23;20024;-78
2022/01/15 11:51:14;;;;;;;11.75;8.55;;;;;;;7.94;60.28;101315.06;6179936;23;20005;-77
2022/01/15 11:54:09;;;;;;;16.63;8.98;;;;;;;7.96;61.10;101311.06;6181336;23;20040;-76
2022/01/15 11:56:43;;;;;;;9.55;7.63;;;;;;;8.00;60.49;101311.44;6175105;23;20441;-77
2022/01/15 11:59:27;;;;;;;12.98;10.07;;;;;;;8.03;59.94;101311.81;6154009;23;20017;-77
2022/01/15 12:05:17;;;;;;;14.55;10.00;;;;;;;8.07;60.78;101305.91;6182725;23;20020;-78
2022/01/15 12:08:05;;;;;;;28.58;12.73;;;;;;;7.96;60.31;101288.44;6181281;23;20001;-77
2022/01/15 12:10:52;;;;;;;17.02;11.32;;;;;;;8.06;60.94;101309.69;6172763;23;20005;-77
2022/01/15 12:13:29;;;;;;;20.45;12.32;;;;;;;8.05;59.76;101311.59;6178549;23;20012;-77
2022/01/15 12:16:15;;;;;;;27.33;13.20;;;;;;;8.04;59.99;101301.75;6181675;23;20005;-78
2022/01/15 12:18:45;;;;;;;;;;;;;;;8.07;60.57;101304.00;6181271;23;20008;-80
2022/01/15 12:21:10;;;;;;;13.13;10.38;;;;;;;8.08;60.93;101302.97;6181703;23;20359;-81
2022/01/15 12:23:36;;;;;;;21.30;11.77;;;;;;;8.06;60.53;101299.66;6180755;23;20037;-78
2022/01/15 12:26:11;;;;;;;15.25;11.25;;;;;;;8.11;60.79;101297.06;6181691;23;20055;-79
2022/01/15 12:28:36;;;;;;;12.20;9.75;;;;;;;8.30;60.63;101294.31;6179941;23;20012;-77
2022/01/15 12:31:02;;;;;;;13.18;10.00;;;;;;;8.43;60.67;101282.41;6177059;23;20009;-78
2022/01/15 12:33:38;;;;;;;10.43;8.85;;;;;;;8.79;61.18;101286.97;6155644;23;20005;-78
2022/01/15 12:36:04;;;;;;;8.70;7.90;;;;;;;9.09;60.40;101277.88;6178317;23;20491;-77
2022/01/15 12:38:29;;;;;;;8.85;7.90;;;;;;;9.42;59.94;101279.22;6181230;23;20033;-77
2022/01/15 12:41:04;;;;;;;10.75;9.00;;;;;;;9.71;59.73;101282.88;6176287;23;20036;-78
2022/01/15 12:43:38;;;;;;;13.03;10.07;;;;;;;9.82;59.00;101267.53;6200262;23;20024;-78
2022/01/15 12:46:15;;;;;;;9.63;8.63;;;;;;;9.82;58.36;101264.78;6209849;23;20234;-77
2022/01/15 12:48:46;;;;;;;8.48;7.65;;;;;;;9.95;59.12;101270.00;6185430;23;20011;-78
2022/01/15 12:51:15;;;;;;;5.95;5.55;;;;;;;10.07;59.07;101250.00;6184974;23;20004;-78
2022/01/15 12:53:48;;;;;;;4.25;3.95;;;;;;;10.29;58.81;101251.00;6207897;23;20316;-77
2022/01/15 12:56:18;;;;;;;4.18;3.88;;;;;;;10.32;58.53;101233.25;6210606;23;20008;-78
2022/01/15 12:58:44;;;;;;;7.45;5.82;;;;;;;10.49;58.20;101238.81;6211735;23;20001;-78
2022/01/15 13:01:14;;;;;;;8.38;7.68;;;;;;;10.62;57.79;101243.97;6181503;23;20011;-78
2022/01/15 13:03:47;;;;;;;7.00;6.45;;;;;;;10.63;57.85;101231.97;6184512;23;20012;-76
2022/01/15 13:06:13;;;;;;;7.18;6.68;;;;;;;10.78;57.68;101236.88;6185040;23;20004;-75
2022/01/15 13:13:17;;;;;;;12.45;9.00;;;;;;;10.60;56.67;101202.38;6150607;23;20013;-78
2022/01/15 13:16:11;;;;;;;;;;;;;;;;;;;;;
2022/01/15 13:19:07;;;;;;;13.73;10.48;;;;;;;10.38;56.36;101218.66;6058435;23;20085;-75
2022/01/15 13:25:15;;;;;;;;;;;;;;;;;;;;;
2022/01/15 13:28:07;;;;;;;13.60;11.02;;;;;;;9.98;56.82;101210.47;6150530;23;20100;-77
2022/01/15 13:30:43;;;;;;;21.52;12.02;;;;;;;9.87;56.25;101218.47;6174696;23;20438;-75
2022/01/15 13:34:29;;;;;;;;;;;;;;;;;;;;;
2022/01/15 13:39:55;;;;;;;12.18;9.93;;;;;;;9.63;57.90;101230.53;6165959;23;20024;-76
2022/01/15 13:42:45;;;;;;;15.10;9.75;;;;;;;9.72;57.71;101207.22;6179062;23;20028;-73
2022/01/15 13:45:44;;;;;;;14.70;8.93;;;;;;;10.00;57.82;101205.59;6181514;23;20073;-74
2022/01/15 13:48:44;;;;;;;;;;;;;;;;;;;;;
2022/01/15 13:55:03;;;;;;;6.80;6.25;;;;;;;11.25;56.54;101191.06;6217359;23;21101;-76
2022/01/15 14:09:03;;;;;;;;;;;;;;;;;;;;;
2022/01/15 14:12:26;;;;;;;15.20;9.25;;;;;;;11.93;53.85;101194.44;6163634;23;20365;-79
2022/01/15 14:15:03;;;;;;;;;;;;;;;;;;;;;
2022/01/15 14:21:38;;;;;;;;;;;;;;;;;;;;;
2022/01/15 14:25:10;;;;;;;4.00;3.65;;;;;;;11.82;53.83;101178.94;6217696;23;20024;-78
2022/01/15 14:28:33;;;;;;;;;;;;;;;;;;;;;
2022/01/15 14:34:08;;;;;;;9.32;8.43;;;;;;;11.52;53.31;101185.66;6053711;23;20015;-74
2022/01/15 14:36:41;;;;;;;17.58;11.52;;;;;;;11.35;53.27;101183.81;6093361;23;20021;-76
2022/01/15 14:42:37;;;;;;;14.05;11.10;;;;;;;11.06;53.55;101176.84;6105281;23;21014;-77
2022/01/15 15:02:54;;;;;;;8.52;7.72;;;;;;;10.33;54.85;101158.38;5877298;24;20591;-77
2022/01/15 15:08:59;;;;;;;10.13;8.48;;;;;;;10.07;55.62;101148.91;5822134;24;20088;-76
2022/01/15 15:12:27;;;;;;;8.10;7.35;;;;;;;10.20;56.07;101175.09;5824866;24;20030;-76
2022/01/15 15:25:45;;;;;;;11.68;7.32;;;;;;;9.79;56.30;101164.22;5819889;24;20061;-77
2022/01/15 15:32:56;;;;;;;;;;;;;;;;;;;;;
2022/01/15 15:35:10;;;;;;;;;;;;;;;;;;;;;
2022/01/15 15:38:44;;;;;;;;;;;;;;;;;;;;;
2022/01/15 15:41:10;;;;;;;5.68;5.30;;;;;;;9.43;57.28;101133.44;5822184;24;20015;-80
2022/01/15 15:50:42;;;;;;;;;;;;;;;;;;;;;